Time;durP1;ratioP1;P1;durP2;ratioP2;P2;SDS_P1;SDS_P2;PMS_P1;PMS_P2;Temp;Humidity;BMP_temperature;BMP_pressure;BME280_temperature;BME280_humidity;BME280_pressure;Samples;Min_cycle;Max_cycle;Signal;HPM_P1;HPM_P2
2023/04/08 00:00:37;;;;;;;2.50;0.80;;;9.90;99.90;;;;;;5072301;28;20414;-73
2023/04/08 00:03:03;;;;;;;1.95;0.70;;;9.90;99.90;;;;;;5099798;27;20423;-72
2023/04/08 00:05:30;;;;;;;2.38;0.80;;;9.90;99.90;;;;;;5106584;27;20411;-72
2023/04/08 00:07:56;;;;;;;2.40;0.73;;;10.00;99.90;;;;;;5071827;28;21239;-72
2023/04/08 00:10:23;;;;;;;3.35;0.80;;;9.90;99.90;;;;;;5073865;28;20962;-73
2023/04/08 00:12:50;;;;;;;2.63;0.82;;;9.90;99.90;;;;;;5073534;28;20446;-72
2023/04/08 00:15:16;;;;;;;1.97;0.90;;;9.80;99.90;;;;;;5073801;28;20435;-73
2023/04/08 00:17:42;;;;;;;2.28;1.00;;;9.80;99.90;;;;;;5075497;28;20465;-72
2023/04/08 00:20:09;;;;;;;1.73;0.77;;;9.80;99.90;;;;;;5071697;28;20424;-72
2023/04/08 00:22:35;;;;;;;2.50;0.90;;;9.90;99.90;;;;;;5076478;28;20445;-72
2023/04/08 00:25:05;;;;;;;1.85;0.90;;;9.90;99.90;;;;;;5062830;28;20412;-72
2023/04/08 00:27:32;;;;;;;2.15;0.68;;;10.00;99.90;;;;;;5071783;28;20414;-72
2023/04/08 00:30:02;;;;;;;2.33;0.80;;;10.00;99.90;;;;;;5104664;27;20411;-72
2023/04/08 00:32:28;;;;;;;2.72;0.88;;;10.00;99.90;;;;;;5073803;28;20436;-73
2023/04/08 00:34:55;;;;;;;3.22;0.82;;;10.10;99.90;;;;;;5071662;28;20525;-72
2023/04/08 00:37:22;;;;;;;1.73;0.60;;;10.20;99.90;;;;;;5071582;28;20420;-72
2023/04/08 00:39:48;;;;;;;1.73;0.68;;;10.20;99.90;;;;;;5076287;28;20441;-73
2023/04/08 00:42:15;;;;;;;3.60;0.73;;;10.20;99.90;;;;;;5076868;28;20417;-72
2023/04/08 00:44:41;;;;;;;2.45;0.80;;;10.20;99.90;;;;;;5070434;28;20412;-72
2023/04/08 00:47:12;;;;;;;2.00;0.80;;;10.30;99.90;;;;;;5090656;28;20958;-72
2023/04/08 00:49:39;;;;;;;2.72;0.80;;;10.30;99.90;;;;;;5074907;28;20984;-72
2023/04/08 00:52:06;;;;;;;2.00;0.80;;;10.20;99.90;;;;;;5111164;27;20409;-72
2023/04/08 00:54:32;;;;;;;2.38;0.75;;;10.20;99.90;;;;;;5075799;28;20413;-72
2023/04/08 00:57:00;;;;;;;1.50;0.60;;;10.30;99.90;;;;;;5070866;28;20405;-72
2023/04/08 00:59:28;;;;;;;2.83;0.83;;;10.30;99.90;;;;;;5075141;28;20802;-73
2023/04/08 01:02:28;;;;;;;3.28;0.82;;;10.30;99.90;;;;;;5074254;28;20419;-73
2023/04/08 01:05:26;;;;;;;3.40;0.73;;;10.30;99.90;;;;;;5078283;28;20441;-73
2023/04/08 01:07:53;;;;;;;2.95;0.70;;;10.40;99.90;;;;;;5068216;28;20418;-72
2023/04/08 01:10:29;;;;;;;2.53;0.82;;;10.40;99.90;;;;;;5075682;28;20843;-72
2023/04/08 01:13:00;;;;;;;1.92;0.60;;;10.50;99.90;;;;;;5078508;28;20437;-72
2023/04/08 01:15:29;;;;;;;1.60;0.60;;;10.50;99.90;;;;;;5073095;28;20453;-73
2023/04/08 01:17:57;;;;;;;2.08;0.70;;;10.50;99.90;;;;;;5078362;28;20416;-72
2023/04/08 01:20:26;;;;;;;1.05;0.57;;;10.50;99.90;;;;;;5088583;28;21220;-73
2023/04/08 01:23:09;;;;;;;2.35;0.80;;;10.50;99.90;;;;;;5054097;28;20497;-73
2023/04/08 01:25:38;;;;;;;2.20;0.65;;;10.50;99.90;;;;;;5069733;28;20434;-72
2023/04/08 01:28:16;;;;;;;2.55;0.80;;;10.50;99.90;;;;;;5092288;28;21025;-72
2023/04/08 01:30:46;;;;;;;1.65;0.70;;;10.60;99.90;;;;;;5074296;28;20838;-73
2023/04/08 01:33:16;;;;;;;1.50;0.60;;;10.60;99.90;;;;;;5075891;28;20473;-73
2023/04/08 01:35:45;;;;;;;1.50;0.77;;;10.60;99.90;;;;;;5076472;28;20443;-73
2023/04/08 01:38:21;;;;;;;3.13;0.63;;;10.60;99.90;;;;;;5073501;28;20536;-72
2023/04/08 01:40:49;;;;;;;2.83;0.77;;;10.60;99.90;;;;;;5079404;28;20932;-72
2023/04/08 01:43:18;;;;;;;0.98;0.57;;;10.60;99.90;;;;;;5072401;28;20470;-72
2023/04/08 01:45:46;;;;;;;1.80;0.70;;;10.60;99.90;;;;;;5053211;28;20411;-72
2023/04/08 01:48:14;;;;;;;1.37;0.60;;;10.60;99.90;;;;;;5070290;28;20538;-73
2023/04/08 01:50:51;;;;;;;2.50;0.70;;;10.60;99.90;;;;;;5073064;28;20423;-73
2023/04/08 01:53:18;;;;;;;2.53;0.60;;;10.70;99.90;;;;;;5078962;28;21069;-74
2023/04/08 01:55:48;;;;;;;1.27;0.60;;;10.70;99.90;;;;;;5056409;28;20910;-75
2023/04/08 01:58:21;;;;;;;2.15;0.77;;;10.80;99.90;;;;;;5078790;28;20405;-75
2023/04/08 02:00:50;;;;;;;1.55;0.60;;;10.80;99.90;;;;;;5111813;27;20778;-75
2023/04/08 02:03:21;;;;;;;2.95;0.88;;;10.80;99.90;;;;;;5085536;28;20425;-75
2023/04/08 02:05:47;;;;;;;2.75;0.80;;;10.70;99.90;;;;;;5076549;28;20415;-75
2023/04/08 02:08:14;;;;;;;2.58;0.70;;;10.70;99.90;;;;;;5077679;28;20475;-75
2023/04/08 02:10:40;;;;;;;3.33;0.70;;;10.70;99.90;;;;;;5069682;28;20462;-75
2023/04/08 02:13:07;;;;;;;2.30;0.70;;;10.70;99.90;;;;;;5076496;28;20406;-75
2023/04/08 02:15:39;;;;;;;3.25;0.90;;;10.70;99.90;;;;;;5094143;28;20466;-75
2023/04/08 02:18:15;;;;;;;3.33;0.87;;;10.70;99.90;;;;;;5075934;28;20461;-75
2023/04/08 02:20:56;;;;;;;2.63;0.90;;;10.80;99.90;;;;;;5083262;28;20457;-75
2023/04/08 02:23:28;;;;;;;3.40;0.90;;;10.70;99.90;;;;;;5075783;28;20441;-75
2023/04/08 02:25:56;;;;;;;1.38;0.70;;;10.70;99.90;;;;;;5092388;28;20401;-75
2023/04/08 02:28:26;;;;;;;3.90;0.88;;;10.60;99.90;;;;;;5081633;28;20409;-76
2023/04/08 02:30:53;;;;;;;2.13;0.82;;;10.70;99.90;;;;;;5076481;28;20526;-76
2023/04/08 02:33:22;;;;;;;2.78;0.88;;;10.70;99.90;;;;;;5110138;27;21017;-76
2023/04/08 02:35:53;;;;;;;1.92;1.00;;;10.60;99.90;;;;;;5106643;27;20434;-75
2023/04/08 02:38:20;;;;;;;2.30;0.80;;;10.70;99.90;;;;;;5075515;28;20581;-75
2023/04/08 02:40:50;;;;;;;3.58;0.80;;;10.70;99.90;;;;;;5083114;28;20803;-76
2023/04/08 02:43:16;;;;;;;1.97;0.90;;;10.70;99.90;;;;;;5082451;28;20500;-76
2023/04/08 02:45:44;;;;;;;3.15;0.85;;;10.80;99.90;;;;;;5094194;27;20807;-75
2023/04/08 02:48:12;;;;;;;2.65;0.70;;;10.80;99.90;;;;;;5070670;28;20425;-75
2023/04/08 02:50:39;;;;;;;2.40;0.70;;;10.90;99.90;;;;;;5079856;28;20415;-76
2023/04/08 02:53:06;;;;;;;1.48;0.70;;;10.90;99.90;;;;;;5076345;28;20979;-75
2023/04/08 02:55:32;;;;;;;1.60;0.80;;;10.90;99.90;;;;;;5080341;28;20405;-76
2023/04/08 02:57:58;;;;;;;1.70;0.60;;;10.90;99.90;;;;;;5078727;28;20413;-75
2023/04/08 03:00:24;;;;;;;1.63;0.70;;;10.80;99.90;;;;;;5079528;28;20496;-76
2023/04/08 03:02:51;;;;;;;2.03;0.80;;;10.80;99.90;;;;;;5074657;28;20837;-75
2023/04/08 03:05:17;;;;;;;3.42;0.85;;;10.90;99.90;;;;;;5081619;28;20410;-75
2023/04/08 03:07:43;;;;;;;1.33;0.70;;;10.90;99.90;;;;;;5075020;28;20502;-75
2023/04/08 03:10:10;;;;;;;2.65;0.90;;;10.90;99.90;;;;;;5080206;28;20419;-76
2023/04/08 03:12:36;;;;;;;4.38;0.93;;;10.90;99.90;;;;;;5075472;28;20770;-76
2023/04/08 03:15:03;;;;;;;2.63;0.95;;;10.80;99.90;;;;;;5078547;28;20854;-75
2023/04/08 03:17:32;;;;;;;2.50;0.93;;;10.80;99.90;;;;;;5069096;28;20414;-75
2023/04/08 03:19:59;;;;;;;1.60;0.70;;;10.90;99.90;;;;;;5073161;28;20415;-75
2023/04/08 03:22:25;;;;;;;1.67;0.80;;;10.90;99.90;;;;;;5077515;28;20409;-76
2023/04/08 03:24:51;;;;;;;4.78;1.00;;;10.80;99.90;;;;;;5054464;28;20414;-75
2023/04/08 03:27:17;;;;;;;2.33;0.70;;;10.70;99.90;;;;;;5078115;28;20972;-76
2023/04/08 03:29:45;;;;;;;3.15;0.77;;;10.80;99.90;;;;;;5083099;28;20447;-76
2023/04/08 03:32:12;;;;;;;5.10;1.20;;;10.90;99.90;;;;;;5085886;28;20400;-75
2023/04/08 03:34:38;;;;;;;2.83;1.10;;;11.00;99.90;;;;;;5076971;28;20997;-76
2023/04/08 03:37:04;;;;;;;2.60;1.00;;;11.00;99.90;;;;;;5079009;28;20883;-75
2023/04/08 03:39:30;;;;;;;3.47;1.20;;;11.10;99.90;;;;;;5111216;27;20415;-75
2023/04/08 03:41:59;;;;;;;2.47;1.10;;;11.10;99.90;;;;;;5079616;28;20495;-76
2023/04/08 03:44:26;;;;;;;2.67;0.90;;;11.10;99.90;;;;;;5075871;28;21006;-75
2023/04/08 03:46:53;;;;;;;2.63;0.82;;;11.10;99.90;;;;;;5075525;28;20983;-76
2023/04/08 03:49:19;;;;;;;2.53;0.90;;;11.10;99.90;;;;;;5082247;28;20417;-76
2023/04/08 03:51:45;;;;;;;2.92;1.02;;;11.10;99.90;;;;;;5080244;28;20413;-76
2023/04/08 03:54:13;;;;;;;2.10;0.80;;;11.10;99.90;;;;;;5073375;28;21330;-76
2023/04/08 03:56:39;;;;;;;3.92;0.90;;;11.10;99.90;;;;;;5059519;28;20595;-75
2023/04/08 03:59:07;;;;;;;3.70;0.90;;;11.10;99.90;;;;;;5079791;28;20410;-76
2023/04/08 04:01:33;;;;;;;2.90;0.90;;;11.10;99.90;;;;;;5068461;28;20463;-76
2023/04/08 04:03:59;;;;;;;5.90;1.13;;;11.10;99.90;;;;;;5076667;28;20882;-75
2023/04/08 04:06:26;;;;;;;2.75;0.85;;;11.20;99.90;;;;;;5092756;28;20471;-76
2023/04/08 04:08:55;;;;;;;4.68;1.10;;;11.20;99.90;;;;;;5060332;28;20436;-75
2023/04/08 04:11:21;;;;;;;4.00;1.00;;;11.20;99.90;;;;;;5077141;28;21168;-75
2023/04/08 04:13:48;;;;;;;2.70;0.93;;;11.20;99.90;;;;;;5078434;28;21223;-76
2023/04/08 04:16:14;;;;;;;2.72;1.10;;;11.30;99.90;;;;;;5073784;28;20414;-76
2023/04/08 04:18:41;;;;;;;3.30;1.20;;;11.30;99.90;;;;;;5074263;28;20427;-75
2023/04/08 04:21:07;;;;;;;3.20;1.17;;;11.30;99.90;;;;;;5075149;28;20419;-76
2023/04/08 04:23:34;;;;;;;4.07;1.00;;;11.30;99.90;;;;;;5075299;28;20433;-75
2023/04/08 04:26:00;;;;;;;2.08;0.90;;;11.30;99.90;;;;;;5072493;28;20483;-75
2023/04/08 04:28:27;;;;;;;3.15;1.00;;;11.30;99.90;;;;;;5078117;28;20972;-75
2023/04/08 04:30:53;;;;;;;2.80;1.00;;;11.30;99.90;;;;;;5075744;28;20419;-75
2023/04/08 04:33:20;;;;;;;2.95;1.10;;;11.30;99.90;;;;;;5081098;28;21166;-76
2023/04/08 04:35:47;;;;;;;2.75;1.10;;;11.30;99.90;;;;;;5077392;28;20750;-75
2023/04/08 04:38:13;;;;;;;2.85;0.90;;;11.30;99.90;;;;;;5083196;28;20853;-76
2023/04/08 04:40:39;;;;;;;2.67;0.85;;;11.40;99.90;;;;;;5086904;28;20510;-75
2023/04/08 04:43:06;;;;;;;3.30;1.13;;;11.40;99.90;;;;;;5078200;28;20419;-76
2023/04/08 04:45:32;;;;;;;4.22;1.13;;;11.40;99.90;;;;;;5083387;28;20419;-76
2023/04/08 04:47:58;;;;;;;2.25;0.90;;;11.40;99.90;;;;;;5080340;28;20490;-75
2023/04/08 04:50:25;;;;;;;2.95;1.00;;;11.50;99.90;;;;;;5077134;28;21192;-76
2023/04/08 04:52:51;;;;;;;3.20;1.10;;;11.50;99.90;;;;;;5080194;28;20508;-75
2023/04/08 04:55:17;;;;;;;2.72;1.08;;;11.60;99.90;;;;;;5109787;27;20401;-75
2023/04/08 04:57:44;;;;;;;3.10;0.97;;;11.60;99.90;;;;;;5075120;28;20495;-76
2023/04/08 05:00:12;;;;;;;3.50;1.20;;;11.60;99.90;;;;;;5074487;28;20469;-75
2023/04/08 05:02:38;;;;;;;3.22;1.05;;;11.60;99.90;;;;;;5070633;28;20467;-75
2023/04/08 05:05:04;;;;;;;4.03;1.20;;;11.60;99.90;;;;;;5058352;28;20918;-76
2023/04/08 05:07:31;;;;;;;2.20;1.00;;;11.60;99.90;;;;;;5091353;28;20896;-75
2023/04/08 05:09:57;;;;;;;2.45;0.85;;;11.70;99.90;;;;;;5077751;28;20500;-75
2023/04/08 05:12:23;;;;;;;4.87;1.10;;;11.60;99.90;;;;;;5076170;28;20987;-76
2023/04/08 05:14:49;;;;;;;3.33;1.05;;;11.60;99.90;;;;;;5076707;28;20773;-75
2023/04/08 05:17:15;;;;;;;2.70;0.95;;;11.70;99.90;;;;;;5082384;28;20413;-75
2023/04/08 05:19:41;;;;;;;4.70;1.00;;;11.80;99.90;;;;;;5078666;28;20497;-75
2023/04/08 05:22:08;;;;;;;5.40;1.40;;;11.90;99.90;;;;;;5075263;28;20526;-75
2023/04/08 05:24:35;;;;;;;3.00;1.20;;;12.00;99.90;;;;;;5077493;28;20418;-76
2023/04/08 05:27:01;;;;;;;3.80;1.45;;;12.10;99.90;;;;;;5073531;28;20414;-75
2023/04/08 05:29:27;;;;;;;4.60;1.40;;;12.20;99.90;;;;;;5093218;28;20858;-75
2023/04/08 05:31:55;;;;;;;2.95;1.20;;;12.30;99.90;;;;;;5086593;28;20420;-76
2023/04/08 05:34:21;;;;;;;5.00;1.60;;;12.30;99.90;;;;;;5063772;28;20882;-76
2023/04/08 05:36:51;;;;;;;3.92;1.85;;;12.30;99.90;;;;;;5084600;28;20410;-76
2023/04/08 05:39:18;;;;;;;4.38;1.75;;;12.40;99.90;;;;;;5088389;28;20402;-76
2023/04/08 05:41:45;;;;;;;3.78;1.63;;;12.40;99.90;;;;;;5079926;28;20507;-76
2023/04/08 05:44:13;;;;;;;4.20;1.77;;;12.40;99.90;;;;;;5080990;28;20443;-76
2023/04/08 05:46:39;;;;;;;7.53;1.70;;;12.50;99.90;;;;;;5090040;28;20410;-76
2023/04/08 05:49:06;;;;;;;7.95;1.80;;;12.50;99.90;;;;;;5065620;28;20496;-76
2023/04/08 05:51:32;;;;;;;5.45;1.50;;;12.60;99.90;;;;;;5091097;28;20402;-76
2023/04/08 05:53:58;;;;;;;5.05;1.30;;;12.50;99.90;;;;;;5071980;28;20892;-74
2023/04/08 05:56:24;;;;;;;3.33;1.30;;;12.40;99.90;;;;;;5073906;28;20432;-74
2023/04/08 05:58:51;;;;;;;3.20;1.10;;;12.40;99.90;;;;;;5074658;28;20939;-74
2023/04/08 06:01:17;;;;;;;5.40;1.45;;;12.50;99.90;;;;;;5077997;28;20409;-75
2023/04/08 06:03:44;;;;;;;3.67;1.30;;;12.50;99.90;;;;;;5079110;28;20429;-74
2023/04/08 06:06:10;;;;;;;2.45;1.05;;;12.50;99.90;;;;;;5075993;28;20418;-74
2023/04/08 06:08:37;;;;;;;2.90;1.13;;;12.60;99.90;;;;;;5074180;28;20409;-74
2023/04/08 06:11:04;;;;;;;3.78;1.25;;;12.60;99.90;;;;;;5056195;28;20485;-74
2023/04/08 06:13:31;;;;;;;4.05;1.30;;;12.60;99.90;;;;;;5057062;28;21012;-74
2023/04/08 06:15:58;;;;;;;3.47;1.10;;;12.70;99.90;;;;;;5073076;28;20410;-74
2023/04/08 06:18:24;;;;;;;5.13;1.20;;;12.70;99.90;;;;;;5072986;28;20398;-74
2023/04/08 06:20:51;;;;;;;3.53;1.10;;;12.80;99.90;;;;;;5101503;28;21504;-74
2023/04/08 06:23:17;;;;;;;2.77;1.10;;;12.80;99.90;;;;;;5075885;28;20932;-74
2023/04/08 06:25:43;;;;;;;2.70;1.00;;;12.80;99.90;;;;;;5081979;28;20410;-74
2023/04/08 06:28:09;;;;;;;4.80;1.15;;;12.90;99.90;;;;;;5061292;28;21248;-74
2023/04/08 06:30:35;;;;;;;4.80;1.20;;;12.90;99.90;;;;;;5074375;28;20413;-74
2023/04/08 06:33:02;;;;;;;2.58;1.10;;;13.00;99.90;;;;;;5074945;28;20876;-74
2023/04/08 06:35:28;;;;;;;7.13;1.27;;;13.10;99.90;;;;;;5081787;28;20394;-74
2023/04/08 06:37:54;;;;;;;3.40;1.10;;;13.10;99.90;;;;;;5075276;28;20755;-74
2023/04/08 06:40:20;;;;;;;4.22;1.10;;;13.10;99.90;;;;;;5079225;28;20458;-74
2023/04/08 06:42:47;;;;;;;3.42;1.20;;;13.10;99.90;;;;;;5082476;28;20420;-74
2023/04/08 06:45:14;;;;;;;3.78;1.10;;;13.20;99.90;;;;;;5075669;28;20415;-74
2023/04/08 06:47:40;;;;;;;3.22;1.13;;;13.20;99.90;;;;;;5081740;28;20514;-74
2023/04/08 06:50:07;;;;;;;4.43;1.20;;;13.30;99.90;;;;;;5080115;28;20425;-74
2023/04/08 06:52:33;;;;;;;4.70;1.33;;;13.40;99.90;;;;;;5080534;28;20413;-74
2023/04/08 06:55:00;;;;;;;4.55;1.20;;;13.50;99.90;;;;;;5072466;28;20414;-74
2023/04/08 06:57:26;;;;;;;3.85;1.35;;;13.50;99.90;;;;;;5081580;28;20406;-74
2023/04/08 06:59:52;;;;;;;4.70;1.38;;;13.60;99.90;;;;;;5089974;28;20478;-74
2023/04/08 07:02:19;;;;;;;6.00;1.52;;;13.60;99.90;;;;;;5071793;28;20409;-74
2023/04/08 07:04:45;;;;;;;4.50;1.30;;;13.70;99.90;;;;;;5102297;27;21083;-74
2023/04/08 07:07:11;;;;;;;4.75;1.40;;;13.50;99.90;;;;;;5082285;28;20494;-74
2023/04/08 07:09:38;;;;;;;4.35;1.40;;;13.30;99.90;;;;;;5079080;28;20854;-74
2023/04/08 07:12:05;;;;;;;6.70;1.50;;;13.00;99.90;;;;;;5083276;28;20413;-74
2023/04/08 07:14:32;;;;;;;2.88;1.38;;;12.80;99.90;;;;;;5075875;28;20405;-74
2023/04/08 07:16:58;;;;;;;3.35;1.50;;;12.60;99.90;;;;;;5083075;28;20480;-74
2023/04/08 07:19:24;;;;;;;4.65;1.70;;;12.50;99.90;;;;;;5078026;28;20940;-74
2023/04/08 07:21:51;;;;;;;5.07;2.05;;;12.50;99.90;;;;;;5105617;27;20448;-74
2023/04/08 07:24:17;;;;;;;6.05;1.65;;;12.50;99.90;;;;;;5111241;27;20406;-74
2023/04/08 07:26:44;;;;;;;4.40;1.77;;;12.50;99.90;;;;;;5072418;28;20914;-74
2023/04/08 07:29:10;;;;;;;3.70;1.63;;;12.40;99.90;;;;;;5076619;28;20497;-74
2023/04/08 07:31:36;;;;;;;5.47;1.90;;;12.40;99.90;;;;;;5086721;28;20529;-74
2023/04/08 07:34:03;;;;;;;4.15;1.90;;;12.80;99.90;;;;;;5081943;28;20481;-74
2023/04/08 07:36:29;;;;;;;3.97;1.85;;;13.20;99.90;;;;;;5090244;28;20400;-74
2023/04/08 07:38:55;;;;;;;7.63;1.80;;;13.00;99.90;;;;;;5088875;28;20455;-74
2023/04/08 07:41:21;;;;;;;7.13;1.98;;;13.40;99.90;;;;;;5077937;28;20465;-74
2023/04/08 07:43:48;;;;;;;5.50;1.70;;;13.70;99.90;;;;;;5081632;28;20493;-74
2023/04/08 07:46:14;;;;;;;3.88;1.40;;;14.00;99.90;;;;;;5078023;28;20853;-74
2023/04/08 07:48:41;;;;;;;3.60;1.30;;;14.10;99.90;;;;;;5083699;28;20473;-74
2023/04/08 07:51:09;;;;;;;5.73;1.20;;;14.20;99.90;;;;;;5082270;28;20428;-74
2023/04/08 07:53:35;;;;;;;4.80;1.53;;;14.30;99.90;;;;;;5079896;28;20424;-74
2023/04/08 07:56:05;;;;;;;3.95;2.00;;;14.30;99.90;;;;;;5073728;28;20415;-74
2023/04/08 07:58:31;;;;;;;8.23;2.58;;;14.00;99.90;;;;;;5079314;28;20442;-74
2023/04/08 08:00:58;;;;;;;5.93;2.20;;;14.00;99.90;;;;;;5075440;28;20413;-74
2023/04/08 08:03:24;;;;;;;8.13;2.33;;;13.90;99.90;;;;;;5081802;28;20475;-74
2023/04/08 08:05:50;;;;;;;5.40;2.35;;;13.70;99.90;;;;;;5083424;28;20752;-74
2023/04/08 08:08:16;;;;;;;6.83;2.37;;;13.30;99.90;;;;;;5080770;28;20920;-74
2023/04/08 08:10:43;;;;;;;5.30;2.10;;;13.10;99.90;;;;;;5081679;28;20604;-74
2023/04/08 08:13:11;;;;;;;5.45;2.17;;;13.00;99.90;;;;;;5089249;28;20407;-74
2023/04/08 08:15:37;;;;;;;4.25;1.70;;;12.90;99.90;;;;;;5062600;28;20398;-74
2023/04/08 08:18:03;;;;;;;3.70;1.75;;;12.80;99.90;;;;;;5082266;28;20439;-74
2023/04/08 08:20:30;;;;;;;3.40;1.50;;;12.80;99.90;;;;;;5081652;28;20433;-74
2023/04/08 08:22:56;;;;;;;4.15;1.77;;;12.90;99.90;;;;;;5072251;28;20419;-74
2023/04/08 08:25:22;;;;;;;5.72;2.10;;;12.90;99.90;;;;;;5098100;28;20477;-74
2023/04/08 08:27:49;;;;;;;4.78;1.80;;;12.90;99.90;;;;;;5075662;28;20410;-74
2023/04/08 08:30:17;;;;;;;3.63;1.50;;;12.90;99.90;;;;;;5110178;27;20410;-74
2023/04/08 08:32:43;;;;;;;4.65;1.65;;;13.10;99.90;;;;;;5079539;28;20502;-74
2023/04/08 08:35:09;;;;;;;4.78;1.50;;;13.10;99.90;;;;;;5089850;27;20899;-74
2023/04/08 08:37:36;;;;;;;5.85;1.63;;;13.10;99.90;;;;;;5080535;28;20392;-74
2023/04/08 08:40:02;;;;;;;4.50;1.50;;;13.10;99.90;;;;;;5059514;28;20432;-74
2023/04/08 08:42:29;;;;;;;4.70;1.55;;;13.10;99.90;;;;;;5080085;28;20448;-74
2023/04/08 08:44:55;;;;;;;4.75;1.50;;;13.20;99.90;;;;;;5095246;28;20990;-74
2023/04/08 08:47:21;;;;;;;5.20;1.75;;;13.20;99.90;;;;;;5094772;28;20501;-74
2023/04/08 08:49:48;;;;;;;5.05;1.60;;;13.20;99.90;;;;;;5083521;28;20566;-74
2023/04/08 08:52:17;;;;;;;4.03;1.40;;;13.30;99.90;;;;;;5074476;28;20443;-74
2023/04/08 08:54:45;;;;;;;7.22;1.50;;;13.20;99.90;;;;;;5067519;28;20511;-74
2023/04/08 08:57:20;;;;;;;3.80;1.73;;;13.30;99.90;;;;;;5077375;28;20407;-74
2023/04/08 08:59:47;;;;;;;3.53;1.70;;;13.50;99.90;;;;;;5090531;28;20502;-74
2023/04/08 09:02:29;;;;;;;4.80;1.63;;;13.60;99.90;;;;;;5074802;28;20419;-74
2023/04/08 09:04:58;;;;;;;6.07;2.00;;;13.70;99.90;;;;;;5071309;28;20497;-74
2023/04/08 09:07:28;;;;;;;4.75;1.80;;;13.80;99.90;;;;;;5074624;28;20405;-74
2023/04/08 09:09:57;;;;;;;4.90;2.00;;;13.90;99.90;;;;;;5113925;27;20521;-74
2023/04/08 09:12:26;;;;;;;6.85;2.17;;;13.80;99.90;;;;;;5073670;28;20413;-74
2023/04/08 09:15:05;;;;;;;7.72;2.25;;;14.00;99.90;;;;;;5076777;28;20401;-74
2023/04/08 09:17:40;;;;;;;5.55;1.95;;;13.90;99.90;;;;;;5075696;28;20417;-74
2023/04/08 09:20:14;;;;;;;6.20;2.30;;;13.90;99.90;;;;;;5087717;28;20406;-74
2023/04/08 09:23:01;;;;;;;4.22;1.90;;;14.00;99.90;;;;;;5084238;28;20446;-74
2023/04/08 09:25:32;;;;;;;7.70;2.20;;;14.10;99.90;;;;;;5071674;28;20422;-74
2023/04/08 09:28:01;;;;;;;5.75;2.15;;;14.20;99.90;;;;;;5078922;28;20405;-74
2023/04/08 09:30:28;;;;;;;6.25;2.03;;;14.10;99.90;;;;;;5078697;28;20413;-74
2023/04/08 09:32:57;;;;;;;7.07;2.67;;;14.50;99.90;;;;;;5081166;28;21025;-74
2023/04/08 09:35:25;;;;;;;9.50;2.65;;;14.80;99.90;;;;;;5079289;28;20402;-74
2023/04/08 09:37:51;;;;;;;4.35;1.50;;;15.10;99.90;;;;;;5088007;28;20403;-74
2023/04/08 09:40:18;;;;;;;5.13;1.50;;;15.10;99.90;;;;;;5078294;28;20420;-74
2023/04/08 09:42:53;;;;;;;5.50;1.38;;;15.20;99.90;;;;;;5081113;28;21152;-74
2023/04/08 09:45:20;;;;;;;5.60;1.55;;;15.20;99.90;;;;;;5080966;28;20401;-74
2023/04/08 09:48:12;;;;;;;4.95;2.13;;;15.20;99.90;;;;;;5073147;28;20409;-74
2023/04/08 09:50:48;;;;;;;6.07;2.60;;;15.20;99.90;;;;;;5106608;27;20838;-74
2023/04/08 09:53:28;;;;;;;4.50;1.93;;;15.10;99.90;;;;;;5063423;28;20452;-74
2023/04/08 09:55:59;;;;;;;6.60;1.47;;;15.10;99.90;;;;;;5072597;28;21000;-74
2023/04/08 09:58:38;;;;;;;8.15;2.33;;;15.30;99.90;;;;;;5084367;28;20421;-74
2023/04/08 10:01:06;;;;;;;6.18;1.98;;;15.40;99.90;;;;;;5079320;28;20428;-74
2023/04/08 10:03:55;;;;;;;4.57;1.70;;;15.40;99.90;;;;;;5089991;28;20411;-75
2023/04/08 10:06:28;;;;;;;3.80;1.25;;;15.60;99.90;;;;;;5077017;28;20405;-74
2023/04/08 10:08:56;;;;;;;5.22;1.45;;;15.70;99.90;;;;;;5101541;28;20407;-74
2023/04/08 10:11:23;;;;;;;5.00;1.85;;;15.80;99.90;;;;;;5081846;28;20426;-74
2023/04/08 10:13:50;;;;;;;4.32;1.70;;;15.80;99.90;;;;;;5073864;28;20414;-74
2023/04/08 10:16:24;;;;;;;5.20;2.00;;;15.80;99.90;;;;;;5083405;28;20437;-74
2023/04/08 10:18:55;;;;;;;5.45;1.42;;;16.00;99.90;;;;;;5081121;28;20432;-74
2023/04/08 10:21:36;;;;;;;6.57;2.03;;;16.00;99.90;;;;;;5084921;28;20829;-74
2023/04/08 10:24:07;;;;;;;7.03;2.00;;;16.10;99.90;;;;;;5082899;28;20436;-74
2023/04/08 10:26:39;;;;;;;4.60;1.67;;;16.20;99.90;;;;;;5083136;28;20405;-74
2023/04/08 10:29:17;;;;;;;7.57;1.70;;;16.20;99.90;;;;;;5074623;28;20777;-73
2023/04/08 10:31:49;;;;;;;6.88;1.55;;;16.30;99.90;;;;;;5088145;28;20401;-74
2023/04/08 10:34:21;;;;;;;4.03;1.50;;;16.30;99.90;;;;;;5095856;27;20553;-74
2023/04/08 10:36:48;;;;;;;5.13;1.52;;;16.40;99.90;;;;;;5079176;28;20409;-74
2023/04/08 10:39:16;;;;;;;4.30;1.65;;;16.10;99.90;;;;;;5080240;28;20402;-74
2023/04/08 10:41:46;;;;;;;7.22;1.83;;;16.10;99.90;;;;;;5079067;28;20411;-74
2023/04/08 10:44:24;;;;;;;3.45;1.30;;;16.30;99.90;;;;;;5075453;28;20415;-74
2023/04/08 10:46:52;;;;;;;4.95;1.38;;;16.30;99.90;;;;;;5097638;28;20403;-74
2023/04/08 10:49:19;;;;;;;4.40;1.50;;;16.20;99.90;;;;;;5081794;28;20436;-74
2023/04/08 10:51:46;;;;;;;4.18;1.90;;;15.80;99.90;;;;;;5086395;28;21162;-74
2023/04/08 10:54:16;;;;;;;4.05;1.70;;;15.70;99.90;;;;;;5079430;28;20405;-74
2023/04/08 10:56:49;;;;;;;5.47;1.50;;;15.30;99.90;;;;;;5077793;28;20495;-74
2023/04/08 10:59:26;;;;;;;5.38;1.80;;;15.30;99.90;;;;;;5076259;28;20403;-74
2023/04/08 11:01:52;;;;;;;4.18;1.52;;;15.20;99.90;;;;;;5097239;28;20496;-74
2023/04/08 11:04:19;;;;;;;4.82;1.77;;;15.10;99.90;;;;;;5114429;27;20928;-74
2023/04/08 11:06:47;;;;;;;5.00;1.70;;;15.10;99.90;;;;;;5083737;28;20404;-74
2023/04/08 11:09:17;;;;;;;6.05;1.80;;;15.20;99.90;;;;;;5075395;28;20422;-74
2023/04/08 11:11:45;;;;;;;5.22;1.80;;;15.60;99.90;;;;;;5069434;28;20960;-74
2023/04/08 11:14:12;;;;;;;7.13;1.60;;;15.80;99.90;;;;;;5093892;28;20411;-74
2023/04/08 11:16:39;;;;;;;5.07;1.58;;;15.90;99.90;;;;;;5074039;28;20746;-74
2023/04/08 11:19:06;;;;;;;4.55;1.50;;;16.00;99.90;;;;;;5089089;28;20418;-74
2023/04/08 11:21:37;;;;;;;3.30;1.40;;;15.80;99.90;;;;;;5084424;28;20416;-74
2023/04/08 11:24:11;;;;;;;6.95;1.60;;;15.60;99.90;;;;;;5087442;28;20778;-74
2023/04/08 11:26:37;;;;;;;6.60;1.92;;;15.70;99.90;;;;;;5076650;28;20406;-74
2023/04/08 11:29:05;;;;;;;6.18;1.60;;;15.90;99.90;;;;;;5067207;28;20410;-74
2023/04/08 11:31:33;;;;;;;3.72;1.38;;;15.90;99.90;;;;;;5068774;28;20488;-73
2023/04/08 11:33:59;;;;;;;5.28;1.60;;;15.90;99.90;;;;;;5085718;28;20443;-73
2023/04/08 11:36:28;;;;;;;6.10;1.70;;;15.80;99.90;;;;;;5079587;28;20799;-74
2023/04/08 11:38:54;;;;;;;4.22;1.50;;;16.00;99.90;;;;;;5061157;28;20402;-74
2023/04/08 11:41:21;;;;;;;4.38;1.63;;;15.90;99.90;;;;;;5081402;28;20928;-74
2023/04/08 11:43:56;;;;;;;4.45;1.50;;;16.10;99.90;;;;;;5085500;28;20895;-74
2023/04/08 11:46:23;;;;;;;6.43;1.80;;;16.20;99.90;;;;;;5078906;28;20821;-74
2023/04/08 11:49:01;;;;;;;4.10;1.63;;;16.40;99.90;;;;;;5083822;28;20418;-74
2023/04/08 11:51:27;;;;;;;5.67;1.80;;;16.40;99.90;;;;;;5064001;28;20492;-74
2023/04/08 11:53:54;;;;;;;5.13;1.88;;;16.00;99.90;;;;;;5075777;28;20979;-74
2023/04/08 11:56:23;;;;;;;3.63;1.30;;;15.80;99.90;;;;;;5082234;28;20485;-74
2023/04/08 11:58:51;;;;;;;4.30;1.58;;;15.90;99.90;;;;;;5087943;28;20417;-74
2023/04/08 12:01:19;;;;;;;5.07;1.60;;;15.80;99.90;;;;;;5078564;28;20411;-74
2023/04/08 12:04:00;;;;;;;6.20;1.60;;;15.50;99.90;;;;;;5082606;28;20409;-74
2023/04/08 12:06:28;;;;;;;6.97;1.90;;;15.30;99.90;;;;;;5078413;28;20465;-74
2023/04/08 12:08:55;;;;;;;4.95;1.70;;;15.60;99.90;;;;;;5082423;28;20414;-73
2023/04/08 12:11:23;;;;;;;7.60;1.90;;;15.80;99.90;;;;;;5082614;28;20435;-74
2023/04/08 12:13:50;;;;;;;3.78;1.55;;;15.90;99.90;;;;;;5095284;28;20465;-73
2023/04/08 12:16:16;;;;;;;5.72;1.90;;;15.80;99.90;;;;;;5092640;28;20421;-74
2023/04/08 12:18:42;;;;;;;7.95;1.73;;;16.00;99.90;;;;;;5057274;28;20411;-74
2023/04/08 12:21:09;;;;;;;5.78;1.77;;;16.20;99.90;;;;;;5091332;28;20413;-74
2023/04/08 12:23:36;;;;;;;3.92;1.80;;;16.40;99.90;;;;;;5078891;28;20770;-74
2023/04/08 12:26:03;;;;;;;6.97;2.00;;;16.60;99.90;;;;;;5112248;27;20413;-74
2023/04/08 12:28:30;;;;;;;5.00;1.80;;;16.60;99.90;;;;;;5110085;27;20485;-74
2023/04/08 12:30:56;;;;;;;5.57;1.80;;;16.70;99.90;;;;;;5090120;28;20495;-74
2023/04/08 12:33:22;;;;;;;6.68;1.70;;;16.70;99.90;;;;;;5110159;27;20413;-74
2023/04/08 12:35:51;;;;;;;4.60;1.70;;;16.80;99.90;;;;;;5077740;28;20860;-74
2023/04/08 12:38:17;;;;;;;7.17;1.90;;;16.80;99.90;;;;;;5077486;28;20891;-74
2023/04/08 12:40:43;;;;;;;6.20;1.77;;;16.80;99.90;;;;;;5076048;28;20788;-74
2023/04/08 12:43:09;;;;;;;5.50;1.88;;;16.80;99.90;;;;;;5080475;28;20458;-74
2023/04/08 12:45:35;;;;;;;6.15;1.77;;;16.70;99.90;;;;;;5078118;28;20532;-74
2023/04/08 12:48:02;;;;;;;3.78;1.50;;;16.70;99.90;;;;;;5061229;28;20413;-74
2023/04/08 12:50:28;;;;;;;4.07;1.40;;;16.70;99.90;;;;;;5079959;28;20521;-74
2023/04/08 12:52:54;;;;;;;5.30;1.63;;;16.60;99.90;;;;;;5081427;28;20399;-74